sensor_id;sensor_type;location;lat;lon;timestamp;temperature;humidity
39779;DHT22;25454;49.878;8.618;2022-07-23T00:01:07;23.40;86.70
39779;DHT22;25454;49.878;8.618;2022-07-23T00:06:08;23.40;87.70
39779;DHT22;25454;49.878;8.618;2022-07-23T00:11:08;23.20;88.50
39779;DHT22;25454;49.878;8.618;2022-07-23T00:16:09;23.10;90.00
39779;DHT22;25454;49.878;8.618;2022-07-23T00:21:10;23.00;90.70
39779;DHT22;25454;49.878;8.618;2022-07-23T00:26:10;23.00;91.30
39779;DHT22;25454;49.878;8.618;2022-07-23T00:31:11;23.00;91.60
39779;DHT22;25454;49.878;8.618;2022-07-23T00:36:15;23.00;92.20
39779;DHT22;25454;49.878;8.618;2022-07-23T00:41:16;23.00;92.70
39779;DHT22;25454;49.878;8.618;2022-07-23T00:46:21;22.90;94.00
39779;DHT22;25454;49.878;8.618;2022-07-23T00:51:21;22.70;96.00
39779;DHT22;25454;49.878;8.618;2022-07-23T00:56:22;22.60;97.90
39779;DHT22;25454;49.878;8.618;2022-07-23T01:01:23;22.50;99.90
39779;DHT22;25454;49.878;8.618;2022-07-23T01:06:24;22.40;99.90
39779;DHT22;25454;49.878;8.618;2022-07-23T01:11:27;22.40;99.90
39779;DHT22;25454;49.878;8.618;2022-07-23T01:16:28;22.40;99.90
39779;DHT22;25454;49.878;8.618;2022-07-23T01:21:29;22.40;99.90
39779;DHT22;25454;49.878;8.618;2022-07-23T01:26:33;22.40;99.90
39779;DHT22;25454;49.878;8.618;2022-07-23T01:31:34;22.50;99.90
39779;DHT22;25454;49.878;8.618;2022-07-23T01:36:36;22.40;99.90
39779;DHT22;25454;49.878;8.618;2022-07-23T01:41:37;22.30;99.90
39779;DHT22;25454;49.878;8.618;2022-07-23T01:46:39;22.20;99.90
39779;DHT22;25454;49.878;8.618;2022-07-23T01:51:39;22.10;99.90
39779;DHT22;25454;49.878;8.618;2022-07-23T01:57:00;22.00;99.90
39779;DHT22;25454;49.878;8.618;2022-07-23T02:02:01;21.90;99.90
39779;DHT22;25454;49.878;8.618;2022-07-23T02:07:02;21.80;99.90
39779;DHT22;25454;49.878;8.618;2022-07-23T02:12:03;21.80;99.90
39779;DHT22;25454;49.878;8.618;2022-07-23T02:17:04;21.80;99.90
39779;DHT22;25454;49.878;8.618;2022-07-23T02:22:04;21.70;99.90
39779;DHT22;25454;49.878;8.618;2022-07-23T02:27:05;21.80;99.90
39779;DHT22;25454;49.878;8.618;2022-07-23T02:32:05;21.80;99.90
39779;DHT22;25454;49.878;8.618;2022-07-23T02:37:06;21.70;99.90
39779;DHT22;25454;49.878;8.618;2022-07-23T02:42:11;21.70;99.90
39779;DHT22;25454;49.878;8.618;2022-07-23T02:47:12;21.50;99.90
39779;DHT22;25454;49.878;8.618;2022-07-23T02:52:15;21.50;99.90
39779;DHT22;25454;49.878;8.618;2022-07-23T02:57:16;21.50;99.90
39779;DHT22;25454;49.878;8.618;2022-07-23T03:02:17;21.40;99.90
39779;DHT22;25454;49.878;8.618;2022-07-23T03:07:17;21.40;99.90
39779;DHT22;25454;49.878;8.618;2022-07-23T03:12:18;21.40;99.90
39779;DHT22;25454;49.878;8.618;2022-07-23T03:17:18;21.40;99.90
39779;DHT22;25454;49.878;8.618;2022-07-23T03:22:19;21.30;99.90
39779;DHT22;25454;49.878;8.618;2022-07-23T03:27:25;21.10;99.90
39779;DHT22;25454;49.878;8.618;2022-07-23T03:32:26;21.10;99.90
39779;DHT22;25454;49.878;8.618;2022-07-23T03:37:27;21.10;99.90
39779;DHT22;25454;49.878;8.618;2022-07-23T03:42:28;21.00;99.90
39779;DHT22;25454;49.878;8.618;2022-07-23T03:47:32;21.00;99.90
39779;DHT22;25454;49.878;8.618;2022-07-23T03:52:32;21.00;99.90
39779;DHT22;25454;49.878;8.618;2022-07-23T03:57:33;21.00;99.90
39779;DHT22;25454;49.878;8.618;2022-07-23T04:02:37;21.20;99.90
39779;DHT22;25454;49.878;8.618;2022-07-23T04:07:37;21.20;99.90
39779;DHT22;25454;49.878;8.618;2022-07-23T04:12:38;21.30;99.90
39779;DHT22;25454;49.878;8.618;2022-07-23T04:17:39;21.10;99.90
39779;DHT22;25454;49.878;8.618;2022-07-23T04:22:39;20.90;99.90
39779;DHT22;25454;49.878;8.618;2022-07-23T04:27:40;20.90;99.90
39779;DHT22;25454;49.878;8.618;2022-07-23T04:32:40;21.00;99.90
39779;DHT22;25454;49.878;8.618;2022-07-23T04:37:41;21.00;99.90
39779;DHT22;25454;49.878;8.618;2022-07-23T04:42:42;21.20;99.90
39779;DHT22;25454;49.878;8.618;2022-07-23T04:47:42;21.40;99.90
39779;DHT22;25454;49.878;8.618;2022-07-23T04:52:43;21.60;99.90
39779;DHT22;25454;49.878;8.618;2022-07-23T04:57:43;21.80;99.90
39779;DHT22;25454;49.878;8.618;2022-07-23T05:02:44;21.90;99.90
39779;DHT22;25454;49.878;8.618;2022-07-23T05:07:44;21.80;99.90
39779;DHT22;25454;49.878;8.618;2022-07-23T05:12:45;21.70;99.90
39779;DHT22;25454;49.878;8.618;2022-07-23T05:17:46;21.50;99.90
39779;DHT22;25454;49.878;8.618;2022-07-23T05:22:47;21.40;99.90
39779;DHT22;25454;49.878;8.618;2022-07-23T05:27:48;21.30;99.90
39779;DHT22;25454;49.878;8.618;2022-07-23T05:32:48;21.10;99.90
39779;DHT22;25454;49.878;8.618;2022-07-23T05:37:49;21.10;99.90
39779;DHT22;25454;49.878;8.618;2022-07-23T05:42:50;21.20;99.90
39779;DHT22;25454;49.878;8.618;2022-07-23T05:47:50;21.20;99.90
39779;DHT22;25454;49.878;8.618;2022-07-23T05:52:51;21.40;99.90
39779;DHT22;25454;49.878;8.618;2022-07-23T05:57:52;21.60;99.90
39779;DHT22;25454;49.878;8.618;2022-07-23T06:02:52;21.70;99.90
39779;DHT22;25454;49.878;8.618;2022-07-23T06:07:59;22.00;99.90
39779;DHT22;25454;49.878;8.618;2022-07-23T06:13:00;23.10;99.90
39779;DHT22;25454;49.878;8.618;2022-07-23T06:18:00;23.50;99.90
39779;DHT22;25454;49.878;8.618;2022-07-23T06:23:01;23.20;99.90
39779;DHT22;25454;49.878;8.618;2022-07-23T06:28:02;23.00;99.90
39779;DHT22;25454;49.878;8.618;2022-07-23T06:33:05;22.80;99.90
39779;DHT22;25454;49.878;8.618;2022-07-23T06:38:06;22.70;99.90
39779;DHT22;25454;49.878;8.618;2022-07-23T06:43:06;23.20;99.90
39779;DHT22;25454;49.878;8.618;2022-07-23T06:48:07;26.70;99.90
39779;DHT22;25454;49.878;8.618;2022-07-23T06:53:08;29.10;97.00
39779;DHT22;25454;49.878;8.618;2022-07-23T06:58:08;30.40;89.10
39779;DHT22;25454;49.878;8.618;2022-07-23T07:03:13;32.70;73.20
39779;DHT22;25454;49.878;8.618;2022-07-23T07:08:20;33.00;62.50
39779;DHT22;25454;49.878;8.618;2022-07-23T07:13:20;32.80;60.80
39779;DHT22;25454;49.878;8.618;2022-07-23T07:18:21;33.40;58.10
39779;DHT22;25454;49.878;8.618;2022-07-23T07:23:21;30.60;64.00
39779;DHT22;25454;49.878;8.618;2022-07-23T07:28:22;29.60;64.70
39779;DHT22;25454;49.878;8.618;2022-07-23T07:33:23;30.50;64.90
39779;DHT22;25454;49.878;8.618;2022-07-23T07:38:25;32.30;59.10
39779;DHT22;25454;49.878;8.618;2022-07-23T07:43:25;32.60;56.60
39779;DHT22;25454;49.878;8.618;2022-07-23T07:48:26;34.10;54.20
39779;DHT22;25454;49.878;8.618;2022-07-23T07:53:27;35.40;50.60
39779;DHT22;25454;49.878;8.618;2022-07-23T07:58:27;36.20;50.10
39779;DHT22;25454;49.878;8.618;2022-07-23T08:03:28;35.60;48.40
39779;DHT22;25454;49.878;8.618;2022-07-23T08:08:29;34.10;51.10
39779;DHT22;25454;49.878;8.618;2022-07-23T08:13:30;32.50;53.00
39779;DHT22;25454;49.878;8.618;2022-07-23T08:18:31;30.50;57.40
39779;DHT22;25454;49.878;8.618;2022-07-23T08:23:31;28.90;61.90
39779;DHT22;25454;49.878;8.618;2022-07-23T08:28:32;28.50;63.50
39779;DHT22;25454;49.878;8.618;2022-07-23T08:33:33;28.10;66.10
39779;DHT22;25454;49.878;8.618;2022-07-23T08:38:34;29.80;62.10
39779;DHT22;25454;49.878;8.618;2022-07-23T08:43:36;32.00;57.40
39779;DHT22;25454;49.878;8.618;2022-07-23T08:48:36;34.60;51.30
39779;DHT22;25454;49.878;8.618;2022-07-23T08:53:37;37.00;46.20
39779;DHT22;25454;49.878;8.618;2022-07-23T08:58:39;38.50;43.00
39779;DHT22;25454;49.878;8.618;2022-07-23T09:03:39;38.30;41.70
39779;DHT22;25454;49.878;8.618;2022-07-23T09:08:42;37.90;43.60
39779;DHT22;25454;49.878;8.618;2022-07-23T09:13:51;39.10;40.30
39779;DHT22;25454;49.878;8.618;2022-07-23T09:19:03;41.10;38.20
39779;DHT22;25454;49.878;8.618;2022-07-23T09:24:11;41.20;36.40
39779;DHT22;25454;49.878;8.618;2022-07-23T09:29:19;41.70;36.30
39779;DHT22;25454;49.878;8.618;2022-07-23T09:39:28;43.40;33.60
39779;DHT22;25454;49.878;8.618;2022-07-23T09:44:30;43.70;31.30
39779;DHT22;25454;49.878;8.618;2022-07-23T09:49:31;43.70;32.60
39779;DHT22;25454;49.878;8.618;2022-07-23T09:54:39;44.50;30.30
39779;DHT22;25454;49.878;8.618;2022-07-23T09:59:41;44.30;30.80
39779;DHT22;25454;49.878;8.618;2022-07-23T10:04:42;45.30;30.10
39779;DHT22;25454;49.878;8.618;2022-07-23T10:09:45;45.50;29.00
39779;DHT22;25454;49.878;8.618;2022-07-23T10:14:51;44.70;29.50
39779;DHT22;25454;49.878;8.618;2022-07-23T10:19:58;44.30;30.10
39779;DHT22;25454;49.878;8.618;2022-07-23T10:30:06;44.80;29.40
39779;DHT22;25454;49.878;8.618;2022-07-23T10:35:31;45.30;28.70
39779;DHT22;25454;49.878;8.618;2022-07-23T10:40:34;45.40;28.50
39779;DHT22;25454;49.878;8.618;2022-07-23T10:45:35;45.00;29.10
39779;DHT22;25454;49.878;8.618;2022-07-23T10:50:37;43.80;29.40
39779;DHT22;25454;49.878;8.618;2022-07-23T10:55:39;41.00;32.80
39779;DHT22;25454;49.878;8.618;2022-07-23T11:00:40;39.30;35.90
39779;DHT22;25454;49.878;8.618;2022-07-23T11:05:46;37.50;38.20
39779;DHT22;25454;49.878;8.618;2022-07-23T11:10:49;37.80;38.40
39779;DHT22;25454;49.878;8.618;2022-07-23T11:16:07;39.60;36.20
39779;DHT22;25454;49.878;8.618;2022-07-23T11:37:11;42.10;33.00
39779;DHT22;25454;49.878;8.618;2022-07-23T11:42:17;43.00;31.60
39779;DHT22;25454;49.878;8.618;2022-07-23T11:47:23;40.40;34.10
39779;DHT22;25454;49.878;8.618;2022-07-23T11:52:25;38.10;37.40
39779;DHT22;25454;49.878;8.618;2022-07-23T11:57:29;36.80;40.00
39779;DHT22;25454;49.878;8.618;2022-07-23T12:02:29;36.00;40.50
39779;DHT22;25454;49.878;8.618;2022-07-23T12:12:57;34.00;43.20
39779;DHT22;25454;49.878;8.618;2022-07-23T12:18:00;33.70;43.20
39779;DHT22;25454;49.878;8.618;2022-07-23T12:23:04;33.50;43.30
39779;DHT22;25454;49.878;8.618;2022-07-23T12:28:09;33.30;43.20
39779;DHT22;25454;49.878;8.618;2022-07-23T12:33:22;33.20;43.90
39779;DHT22;25454;49.878;8.618;2022-07-23T12:38:25;32.70;45.00
39779;DHT22;25454;49.878;8.618;2022-07-23T12:43:31;32.60;44.70
39779;DHT22;25454;49.878;8.618;2022-07-23T12:48:39;32.60;43.70
39779;DHT22;25454;49.878;8.618;2022-07-23T12:53:52;32.60;43.80
39779;DHT22;25454;49.878;8.618;2022-07-23T12:59:06;32.70;43.50
39779;DHT22;25454;49.878;8.618;2022-07-23T13:04:24;32.60;44.10
39779;DHT22;25454;49.878;8.618;2022-07-23T13:09:29;32.70;43.50
39779;DHT22;25454;49.878;8.618;2022-07-23T13:14:30;32.50;44.00
39779;DHT22;25454;49.878;8.618;2022-07-23T13:19:31;32.40;43.80
39779;DHT22;25454;49.878;8.618;2022-07-23T13:24:31;32.40;44.00
39779;DHT22;25454;49.878;8.618;2022-07-23T13:29:33;32.60;43.30
39779;DHT22;25454;49.878;8.618;2022-07-23T13:34:33;32.50;42.70
39779;DHT22;25454;49.878;8.618;2022-07-23T13:39:34;32.20;43.70
39779;DHT22;25454;49.878;8.618;2022-07-23T13:44:35;32.30;44.40
39779;DHT22;25454;49.878;8.618;2022-07-23T13:49:35;32.70;43.50
39779;DHT22;25454;49.878;8.618;2022-07-23T13:54:36;32.80;43.40
39779;DHT22;25454;49.878;8.618;2022-07-23T13:59:39;32.60;42.80
39779;DHT22;25454;49.878;8.618;2022-07-23T14:04:40;32.70;43.30
39779;DHT22;25454;49.878;8.618;2022-07-23T14:09:41;32.70;43.10
39779;DHT22;25454;49.878;8.618;2022-07-23T14:14:41;32.40;43.10
39779;DHT22;25454;49.878;8.618;2022-07-23T14:19:43;32.10;43.70
39779;DHT22;25454;49.878;8.618;2022-07-23T14:24:47;31.50;44.00
39779;DHT22;25454;49.878;8.618;2022-07-23T14:29:48;31.10;44.70
39779;DHT22;25454;49.878;8.618;2022-07-23T14:34:49;31.10;44.50
39779;DHT22;25454;49.878;8.618;2022-07-23T14:39:49;31.00;44.20
39779;DHT22;25454;49.878;8.618;2022-07-23T14:44:50;30.90;45.00
39779;DHT22;25454;49.878;8.618;2022-07-23T14:49:51;30.80;45.20
39779;DHT22;25454;49.878;8.618;2022-07-23T14:54:51;30.90;45.60
39779;DHT22;25454;49.878;8.618;2022-07-23T14:59:52;30.90;45.80
39779;DHT22;25454;49.878;8.618;2022-07-23T15:04:52;31.00;45.40
39779;DHT22;25454;49.878;8.618;2022-07-23T15:09:53;31.00;45.50
39779;DHT22;25454;49.878;8.618;2022-07-23T15:14:54;31.10;44.60
39779;DHT22;25454;49.878;8.618;2022-07-23T15:19:54;31.20;44.50
39779;DHT22;25454;49.878;8.618;2022-07-23T15:24:55;31.20;44.90
39779;DHT22;25454;49.878;8.618;2022-07-23T15:29:55;31.10;45.40
39779;DHT22;25454;49.878;8.618;2022-07-23T15:34:56;30.80;45.80
39779;DHT22;25454;49.878;8.618;2022-07-23T15:39:57;30.50;46.30
39779;DHT22;25454;49.878;8.618;2022-07-23T15:44:58;30.40;46.70
39779;DHT22;25454;49.878;8.618;2022-07-23T15:49:58;30.30;47.80
39779;DHT22;25454;49.878;8.618;2022-07-23T15:54:59;30.10;47.00
39779;DHT22;25454;49.878;8.618;2022-07-23T16:00:00;30.10;47.00
39779;DHT22;25454;49.878;8.618;2022-07-23T16:05:01;30.10;46.70
39779;DHT22;25454;49.878;8.618;2022-07-23T16:10:01;30.10;46.40
39779;DHT22;25454;49.878;8.618;2022-07-23T16:15:03;29.80;46.60
39779;DHT22;25454;49.878;8.618;2022-07-23T16:20:05;29.60;47.00
39779;DHT22;25454;49.878;8.618;2022-07-23T16:25:08;29.50;47.50
39779;DHT22;25454;49.878;8.618;2022-07-23T16:30:11;29.50;47.90
39779;DHT22;25454;49.878;8.618;2022-07-23T16:35:11;29.70;46.60
39779;DHT22;25454;49.878;8.618;2022-07-23T16:40:13;29.70;46.30
39779;DHT22;25454;49.878;8.618;2022-07-23T16:45:14;29.70;46.70
39779;DHT22;25454;49.878;8.618;2022-07-23T16:50:16;29.50;46.60
39779;DHT22;25454;49.878;8.618;2022-07-23T16:55:17;29.40;46.80
39779;DHT22;25454;49.878;8.618;2022-07-23T17:00:18;29.40;47.10
39779;DHT22;25454;49.878;8.618;2022-07-23T17:05:21;29.20;46.50
39779;DHT22;25454;49.878;8.618;2022-07-23T17:10:22;29.20;46.90
39779;DHT22;25454;49.878;8.618;2022-07-23T17:15:23;29.20;47.00
39779;DHT22;25454;49.878;8.618;2022-07-23T17:20:23;29.10;47.00
39779;DHT22;25454;49.878;8.618;2022-07-23T17:25:24;29.10;46.90
39779;DHT22;25454;49.878;8.618;2022-07-23T17:30:25;29.10;46.70
39779;DHT22;25454;49.878;8.618;2022-07-23T17:35:25;29.00;46.90
39779;DHT22;25454;49.878;8.618;2022-07-23T17:40:26;28.80;46.90
39779;DHT22;25454;49.878;8.618;2022-07-23T17:45:27;28.60;47.30
39779;DHT22;25454;49.878;8.618;2022-07-23T17:50:30;28.40;47.40
39779;DHT22;25454;49.878;8.618;2022-07-23T17:55:34;28.30;47.50
39779;DHT22;25454;49.878;8.618;2022-07-23T18:00:36;28.20;48.00
39779;DHT22;25454;49.878;8.618;2022-07-23T18:05:37;28.10;48.30
39779;DHT22;25454;49.878;8.618;2022-07-23T18:10:38;28.10;48.50
39779;DHT22;25454;49.878;8.618;2022-07-23T18:15:39;28.00;48.60
39779;DHT22;25454;49.878;8.618;2022-07-23T18:20:40;27.90;48.70
39779;DHT22;25454;49.878;8.618;2022-07-23T18:25:40;27.80;49.10
39779;DHT22;25454;49.878;8.618;2022-07-23T18:30:41;27.70;48.80
39779;DHT22;25454;49.878;8.618;2022-07-23T18:35:41;27.70;48.50
39779;DHT22;25454;49.878;8.618;2022-07-23T18:40:43;27.60;48.60
39779;DHT22;25454;49.878;8.618;2022-07-23T18:45:44;27.50;49.10
39779;DHT22;25454;49.878;8.618;2022-07-23T18:50:45;27.40;49.20
39779;DHT22;25454;49.878;8.618;2022-07-23T18:55:46;27.20;49.50
39779;DHT22;25454;49.878;8.618;2022-07-23T19:00:47;27.10;49.80
39779;DHT22;25454;49.878;8.618;2022-07-23T19:05:48;26.90;50.30
39779;DHT22;25454;49.878;8.618;2022-07-23T19:10:49;26.60;50.90
39779;DHT22;25454;49.878;8.618;2022-07-23T19:15:50;26.40;51.30
39779;DHT22;25454;49.878;8.618;2022-07-23T19:20:51;26.20;51.90
39779;DHT22;25454;49.878;8.618;2022-07-23T19:25:52;26.00;52.40
39779;DHT22;25454;49.878;8.618;2022-07-23T19:30:53;25.80;52.90
39779;DHT22;25454;49.878;8.618;2022-07-23T19:35:53;25.70;53.40
39779;DHT22;25454;49.878;8.618;2022-07-23T19:40:54;25.50;53.90
39779;DHT22;25454;49.878;8.618;2022-07-23T19:45:54;25.30;54.10
39779;DHT22;25454;49.878;8.618;2022-07-23T19:50:55;25.20;54.60
39779;DHT22;25454;49.878;8.618;2022-07-23T19:55:56;25.10;54.70
39779;DHT22;25454;49.878;8.618;2022-07-23T20:00:56;25.00;54.80
39779;DHT22;25454;49.878;8.618;2022-07-23T20:05:57;25.00;55.10
39779;DHT22;25454;49.878;8.618;2022-07-23T20:10:57;24.90;55.00
39779;DHT22;25454;49.878;8.618;2022-07-23T20:15:58;24.90;55.20
39779;DHT22;25454;49.878;8.618;2022-07-23T20:20:59;24.80;55.30
39779;DHT22;25454;49.878;8.618;2022-07-23T20:26:00;24.80;55.40
39779;DHT22;25454;49.878;8.618;2022-07-23T20:31:03;24.70;55.80
39779;DHT22;25454;49.878;8.618;2022-07-23T20:36:04;24.60;56.10
39779;DHT22;25454;49.878;8.618;2022-07-23T20:41:05;24.40;57.00
39779;DHT22;25454;49.878;8.618;2022-07-23T20:46:05;24.20;57.50
39779;DHT22;25454;49.878;8.618;2022-07-23T20:51:06;24.10;58.50
39779;DHT22;25454;49.878;8.618;2022-07-23T20:56:10;23.90;59.10
39779;DHT22;25454;49.878;8.618;2022-07-23T21:01:10;23.90;59.80
39779;DHT22;25454;49.878;8.618;2022-07-23T21:06:14;23.80;60.00
39779;DHT22;25454;49.878;8.618;2022-07-23T21:11:15;23.90;60.00
39779;DHT22;25454;49.878;8.618;2022-07-23T21:16:17;23.90;60.30
39779;DHT22;25454;49.878;8.618;2022-07-23T21:21:17;23.90;60.70
39779;DHT22;25454;49.878;8.618;2022-07-23T21:26:19;23.90;62.80
39779;DHT22;25454;49.878;8.618;2022-07-23T21:31:19;23.80;62.80
39779;DHT22;25454;49.878;8.618;2022-07-23T21:36:20;23.70;63.10
39779;DHT22;25454;49.878;8.618;2022-07-23T21:41:21;23.70;63.60
39779;DHT22;25454;49.878;8.618;2022-07-23T21:46:22;23.80;62.30
39779;DHT22;25454;49.878;8.618;2022-07-23T21:51:22;23.80;61.20
39779;DHT22;25454;49.878;8.618;2022-07-23T21:56:23;23.90;62.30
39779;DHT22;25454;49.878;8.618;2022-07-23T22:01:24;23.90;62.30
39779;DHT22;25454;49.878;8.618;2022-07-23T22:06:25;23.90;61.30
39779;DHT22;25454;49.878;8.618;2022-07-23T22:11:25;23.90;60.90
39779;DHT22;25454;49.878;8.618;2022-07-23T22:16:26;23.90;61.40
39779;DHT22;25454;49.878;8.618;2022-07-23T22:21:27;23.80;61.50
39779;DHT22;25454;49.878;8.618;2022-07-23T22:26:27;23.70;62.50
39779;DHT22;25454;49.878;8.618;2022-07-23T22:31:28;23.60;62.90
39779;DHT22;25454;49.878;8.618;2022-07-23T22:36:28;23.50;63.30
39779;DHT22;25454;49.878;8.618;2022-07-23T22:41:29;23.40;63.90
39779;DHT22;25454;49.878;8.618;2022-07-23T22:46:30;23.40;64.60
39779;DHT22;25454;49.878;8.618;2022-07-23T22:51:31;23.40;64.40
39779;DHT22;25454;49.878;8.618;2022-07-23T22:56:31;23.40;64.60
39779;DHT22;25454;49.878;8.618;2022-07-23T23:01:33;23.30;65.20
39779;DHT22;25454;49.878;8.618;2022-07-23T23:06:36;23.20;65.40
39779;DHT22;25454;49.878;8.618;2022-07-23T23:11:37;23.10;66.00
39779;DHT22;25454;49.878;8.618;2022-07-23T23:16:38;23.00;66.80
39779;DHT22;25454;49.878;8.618;2022-07-23T23:21:38;22.90;67.20
39779;DHT22;25454;49.878;8.618;2022-07-23T23:26:39;22.90;67.60
39779;DHT22;25454;49.878;8.618;2022-07-23T23:31:40;22.80;68.00
39779;DHT22;25454;49.878;8.618;2022-07-23T23:36:43;22.80;68.50
39779;DHT22;25454;49.878;8.618;2022-07-23T23:41:44;22.70;69.20
39779;DHT22;25454;49.878;8.618;2022-07-23T23:46:45;22.60;69.60
39779;DHT22;25454;49.878;8.618;2022-07-23T23:51:45;22.40;70.40
39779;DHT22;25454;49.878;8.618;2022-07-23T23:56:46;22.40;71.10
